KDAY Airport Diagram

We have created a template for each of the higher traffic airports in the vZID airspace. They include KCMH, KCRW, KCVG, KDAY, KIND, KLEX and KSDF. You wil find usefull information including the airport diagram, weather, and specific airport procedures.

KDAY Weather

[Source: ADDS]
METAR
KDAY 300656Z 31005KT 10SM SCT110 OVC140 17/13 A2996 RMK AO2 SLP140 T01670128 =
TAF
KDAY 300535Z 3006/3106 23006KT P6SM BKN100 FM301000 26005KT P6SM FEW100 FM301600 26014G22KT P6SM FEW060 FM310000 27008KT P6SM FEW080 FM310500 21004KT P6SM SCT100 =

DAY Operations

Calm Wind Configuration is runways 24L and 24R

Runway 24L typically departs south and west

Runway 24R typicall departs north and east

 

JSN Epic template designed by JoomlaShine.com